sensor_id;sensor_type;location;lat;lon;timestamp;temperature;humidity
76168;DHT22;64927;48.214;16.378;2023-07-20T00:02:13;26.00;39.10
76168;DHT22;64927;48.214;16.378;2023-07-20T00:04:39;25.90;39.10
76168;DHT22;64927;48.214;16.378;2023-07-20T00:07:05;25.90;39.30
76168;DHT22;64927;48.214;16.378;2023-07-20T00:09:33;25.80;39.20
76168;DHT22;64927;48.214;16.378;2023-07-20T00:12:01;25.90;39.10
76168;DHT22;64927;48.214;16.378;2023-07-20T00:14:27;25.80;39.30
76168;DHT22;64927;48.214;16.378;2023-07-20T00:16:55;25.80;39.60
76168;DHT22;64927;48.214;16.378;2023-07-20T00:19:26;25.60;40.20
76168;DHT22;64927;48.214;16.378;2023-07-20T00:21:52;25.50;40.40
76168;DHT22;64927;48.214;16.378;2023-07-20T00:24:18;25.40;40.80
76168;DHT22;64927;48.214;16.378;2023-07-20T00:26:44;25.40;41.10
76168;DHT22;64927;48.214;16.378;2023-07-20T00:29:10;25.30;41.30
76168;DHT22;64927;48.214;16.378;2023-07-20T00:31:36;25.30;41.50
76168;DHT22;64927;48.214;16.378;2023-07-20T00:34:03;25.20;41.20
76168;DHT22;64927;48.214;16.378;2023-07-20T00:36:29;25.20;41.20
76168;DHT22;64927;48.214;16.378;2023-07-20T00:38:56;25.10;41.40
76168;DHT22;64927;48.214;16.378;2023-07-20T00:41:22;25.10;41.60
76168;DHT22;64927;48.214;16.378;2023-07-20T00:43:48;25.10;42.60
76168;DHT22;64927;48.214;16.378;2023-07-20T00:46:14;25.10;41.60
76168;DHT22;64927;48.214;16.378;2023-07-20T00:48:40;25.30;41.40
76168;DHT22;64927;48.214;16.378;2023-07-20T00:51:06;25.40;41.40
76168;DHT22;64927;48.214;16.378;2023-07-20T00:53:32;25.50;41.30
76168;DHT22;64927;48.214;16.378;2023-07-20T00:55:58;25.60;41.50
76168;DHT22;64927;48.214;16.378;2023-07-20T00:58:27;25.60;41.80
76168;DHT22;64927;48.214;16.378;2023-07-20T01:00:53;25.70;42.00
76168;DHT22;64927;48.214;16.378;2023-07-20T01:03:21;25.60;42.40
76168;DHT22;64927;48.214;16.378;2023-07-20T01:06:09;25.60;42.90
76168;DHT22;64927;48.214;16.378;2023-07-20T01:11:16;25.60;42.90
76168;DHT22;64927;48.214;16.378;2023-07-20T01:13:44;25.60;42.70
76168;DHT22;64927;48.214;16.378;2023-07-20T01:16:10;25.60;42.60
76168;DHT22;64927;48.214;16.378;2023-07-20T01:18:36;25.80;42.40
76168;DHT22;64927;48.214;16.378;2023-07-20T01:21:06;25.80;42.50
76168;DHT22;64927;48.214;16.378;2023-07-20T01:29:26;25.80;41.30
76168;DHT22;64927;48.214;16.378;2023-07-20T01:32:00;25.80;41.20
76168;DHT22;64927;48.214;16.378;2023-07-20T01:34:30;25.80;40.90
76168;DHT22;64927;48.214;16.378;2023-07-20T01:36:56;25.70;40.90
76168;DHT22;64927;48.214;16.378;2023-07-20T01:39:23;25.70;41.10
76168;DHT22;64927;48.214;16.378;2023-07-20T01:41:49;25.60;41.00
76168;DHT22;64927;48.214;16.378;2023-07-20T01:44:15;25.60;41.10
76168;DHT22;64927;48.214;16.378;2023-07-20T01:46:40;25.70;41.10
76168;DHT22;64927;48.214;16.378;2023-07-20T01:49:06;25.60;41.20
76168;DHT22;64927;48.214;16.378;2023-07-20T01:51:32;25.50;41.60
76168;DHT22;64927;48.214;16.378;2023-07-20T01:53:59;25.40;41.70
76168;DHT22;64927;48.214;16.378;2023-07-20T01:56:25;25.40;41.80
76168;DHT22;64927;48.214;16.378;2023-07-20T01:58:51;25.30;42.10
76168;DHT22;64927;48.214;16.378;2023-07-20T02:01:16;25.10;42.50
76168;DHT22;64927;48.214;16.378;2023-07-20T02:03:42;25.10;42.60
76168;DHT22;64927;48.214;16.378;2023-07-20T02:06:07;25.10;42.70
76168;DHT22;64927;48.214;16.378;2023-07-20T02:08:33;25.20;43.00
76168;DHT22;64927;48.214;16.378;2023-07-20T02:10:59;25.20;42.90
76168;DHT22;64927;48.214;16.378;2023-07-20T02:13:24;25.10;43.10
76168;DHT22;64927;48.214;16.378;2023-07-20T02:15:50;25.10;43.20
76168;DHT22;64927;48.214;16.378;2023-07-20T02:18:16;25.20;43.10
76168;DHT22;64927;48.214;16.378;2023-07-20T02:20:42;25.10;43.20
76168;DHT22;64927;48.214;16.378;2023-07-20T02:23:07;25.10;43.20
76168;DHT22;64927;48.214;16.378;2023-07-20T02:25:33;25.10;43.20
76168;DHT22;64927;48.214;16.378;2023-07-20T02:27:59;25.10;43.20
76168;DHT22;64927;48.214;16.378;2023-07-20T02:30:24;25.20;43.00
76168;DHT22;64927;48.214;16.378;2023-07-20T02:32:51;25.20;43.20
76168;DHT22;64927;48.214;16.378;2023-07-20T02:35:21;25.10;43.40
76168;DHT22;64927;48.214;16.378;2023-07-20T02:37:47;25.10;43.40
76168;DHT22;64927;48.214;16.378;2023-07-20T02:40:13;25.10;43.20
76168;DHT22;64927;48.214;16.378;2023-07-20T02:42:38;25.10;43.20
76168;DHT22;64927;48.214;16.378;2023-07-20T02:45:05;25.00;43.40
76168;DHT22;64927;48.214;16.378;2023-07-20T02:47:31;24.90;43.60
76168;DHT22;64927;48.214;16.378;2023-07-20T02:49:57;25.10;43.60
76168;DHT22;64927;48.214;16.378;2023-07-20T02:52:25;25.10;43.70
76168;DHT22;64927;48.214;16.378;2023-07-20T02:54:50;25.10;43.80
76168;DHT22;64927;48.214;16.378;2023-07-20T02:57:16;25.10;44.00
76168;DHT22;64927;48.214;16.378;2023-07-20T02:59:42;25.10;44.20
76168;DHT22;64927;48.214;16.378;2023-07-20T03:02:07;25.00;44.30
76168;DHT22;64927;48.214;16.378;2023-07-20T03:04:35;24.90;44.50
76168;DHT22;64927;48.214;16.378;2023-07-20T03:07:04;24.90;44.70
76168;DHT22;64927;48.214;16.378;2023-07-20T03:09:29;24.90;44.70
76168;DHT22;64927;48.214;16.378;2023-07-20T03:11:55;24.90;44.70
76168;DHT22;64927;48.214;16.378;2023-07-20T03:14:21;24.90;44.90
76168;DHT22;64927;48.214;16.378;2023-07-20T03:16:46;24.80;44.80
76168;DHT22;64927;48.214;16.378;2023-07-20T03:19:12;24.90;44.90
76168;DHT22;64927;48.214;16.378;2023-07-20T03:21:37;24.80;45.00
76168;DHT22;64927;48.214;16.378;2023-07-20T03:24:09;24.80;44.90
76168;DHT22;64927;48.214;16.378;2023-07-20T03:26:35;24.70;44.80
76168;DHT22;64927;48.214;16.378;2023-07-20T03:29:01;24.60;44.90
76168;DHT22;64927;48.214;16.378;2023-07-20T03:31:27;24.70;44.90
76168;DHT22;64927;48.214;16.378;2023-07-20T03:33:52;24.60;44.80
76168;DHT22;64927;48.214;16.378;2023-07-20T03:36:20;24.50;44.90
76168;DHT22;64927;48.214;16.378;2023-07-20T03:38:46;24.60;44.80
76168;DHT22;64927;48.214;16.378;2023-07-20T03:41:12;24.70;44.70
76168;DHT22;64927;48.214;16.378;2023-07-20T03:43:38;24.70;44.60
76168;DHT22;64927;48.214;16.378;2023-07-20T03:46:03;24.70;44.90
76168;DHT22;64927;48.214;16.378;2023-07-20T03:48:34;24.70;44.70
76168;DHT22;64927;48.214;16.378;2023-07-20T03:50:59;24.70;44.80
76168;DHT22;64927;48.214;16.378;2023-07-20T03:53:25;24.70;44.80
76168;DHT22;64927;48.214;16.378;2023-07-20T03:55:52;24.80;44.70
76168;DHT22;64927;48.214;16.378;2023-07-20T03:58:19;24.80;44.70
76168;DHT22;64927;48.214;16.378;2023-07-20T04:00:51;24.90;44.50
76168;DHT22;64927;48.214;16.378;2023-07-20T04:03:17;24.90;44.70
76168;DHT22;64927;48.214;16.378;2023-07-20T04:05:44;25.00;44.80
76168;DHT22;64927;48.214;16.378;2023-07-20T04:08:12;25.00;44.70
76168;DHT22;64927;48.214;16.378;2023-07-20T04:10:39;25.10;44.70
76168;DHT22;64927;48.214;16.378;2023-07-20T04:13:05;25.10;44.80
76168;DHT22;64927;48.214;16.378;2023-07-20T04:15:31;25.10;44.90
76168;DHT22;64927;48.214;16.378;2023-07-20T04:17:59;25.20;44.80
76168;DHT22;64927;48.214;16.378;2023-07-20T04:20:26;25.20;44.90
76168;DHT22;64927;48.214;16.378;2023-07-20T04:22:51;25.10;44.90
76168;DHT22;64927;48.214;16.378;2023-07-20T04:25:20;25.10;45.10
76168;DHT22;64927;48.214;16.378;2023-07-20T04:27:46;25.00;45.40
76168;DHT22;64927;48.214;16.378;2023-07-20T04:30:12;24.90;45.70
76168;DHT22;64927;48.214;16.378;2023-07-20T04:32:38;25.00;45.80
76168;DHT22;64927;48.214;16.378;2023-07-20T04:35:09;25.10;45.50
76168;DHT22;64927;48.214;16.378;2023-07-20T04:37:35;25.10;46.00
76168;DHT22;64927;48.214;16.378;2023-07-20T04:40:01;25.10;45.60
76168;DHT22;64927;48.214;16.378;2023-07-20T04:42:27;25.00;45.40
76168;DHT22;64927;48.214;16.378;2023-07-20T04:44:52;25.00;45.70
76168;DHT22;64927;48.214;16.378;2023-07-20T04:47:18;25.00;45.90
76168;DHT22;64927;48.214;16.378;2023-07-20T04:49:44;25.00;46.10
76168;DHT22;64927;48.214;16.378;2023-07-20T04:52:09;24.90;46.40
76168;DHT22;64927;48.214;16.378;2023-07-20T04:54:35;24.80;46.50
76168;DHT22;64927;48.214;16.378;2023-07-20T04:57:00;24.80;47.20
76168;DHT22;64927;48.214;16.378;2023-07-20T04:59:28;24.80;47.00
76168;DHT22;64927;48.214;16.378;2023-07-20T05:01:58;24.80;47.20
76168;DHT22;64927;48.214;16.378;2023-07-20T05:04:24;24.90;47.10
76168;DHT22;64927;48.214;16.378;2023-07-20T05:06:51;25.00;47.00
76168;DHT22;64927;48.214;16.378;2023-07-20T05:09:17;25.00;46.70
76168;DHT22;64927;48.214;16.378;2023-07-20T05:11:42;25.10;46.70
76168;DHT22;64927;48.214;16.378;2023-07-20T05:14:10;25.20;46.60
76168;DHT22;64927;48.214;16.378;2023-07-20T05:16:36;25.40;46.10
76168;DHT22;64927;48.214;16.378;2023-07-20T05:19:03;25.40;46.10
76168;DHT22;64927;48.214;16.378;2023-07-20T05:21:29;25.50;45.80
76168;DHT22;64927;48.214;16.378;2023-07-20T05:23:55;25.60;45.50
76168;DHT22;64927;48.214;16.378;2023-07-20T05:26:20;25.40;46.10
76168;DHT22;64927;48.214;16.378;2023-07-20T05:28:46;25.50;46.30
76168;DHT22;64927;48.214;16.378;2023-07-20T05:31:14;25.50;46.10
76168;DHT22;64927;48.214;16.378;2023-07-20T05:33:39;25.50;46.20
76168;DHT22;64927;48.214;16.378;2023-07-20T05:36:05;25.70;45.70
76168;DHT22;64927;48.214;16.378;2023-07-20T05:38:30;25.80;45.50
76168;DHT22;64927;48.214;16.378;2023-07-20T05:40:59;25.90;45.70
76168;DHT22;64927;48.214;16.378;2023-07-20T05:43:27;26.00;45.20
76168;DHT22;64927;48.214;16.378;2023-07-20T05:45:55;26.20;44.90
76168;DHT22;64927;48.214;16.378;2023-07-20T05:48:20;26.40;44.10
76168;DHT22;64927;48.214;16.378;2023-07-20T05:50:46;26.40;44.20
76168;DHT22;64927;48.214;16.378;2023-07-20T05:53:12;26.30;44.70
76168;DHT22;64927;48.214;16.378;2023-07-20T05:55:37;26.50;44.10
76168;DHT22;64927;48.214;16.378;2023-07-20T05:58:06;26.60;43.80
76168;DHT22;64927;48.214;16.378;2023-07-20T06:00:32;26.60;43.50
76168;DHT22;64927;48.214;16.378;2023-07-20T06:03:00;26.70;43.30
76168;DHT22;64927;48.214;16.378;2023-07-20T06:05:26;26.80;43.30
76168;DHT22;64927;48.214;16.378;2023-07-20T06:07:51;26.80;42.90
76168;DHT22;64927;48.214;16.378;2023-07-20T06:10:17;26.90;42.90
76168;DHT22;64927;48.214;16.378;2023-07-20T06:12:45;27.00;42.10
76168;DHT22;64927;48.214;16.378;2023-07-20T06:15:28;27.10;41.70
76168;DHT22;64927;48.214;16.378;2023-07-20T06:17:55;27.20;41.50
76168;DHT22;64927;48.214;16.378;2023-07-20T06:20:22;27.50;41.90
76168;DHT22;64927;48.214;16.378;2023-07-20T06:22:47;27.80;40.90
76168;DHT22;64927;48.214;16.378;2023-07-20T06:25:13;28.00;40.30
76168;DHT22;64927;48.214;16.378;2023-07-20T06:27:39;28.20;40.00
76168;DHT22;64927;48.214;16.378;2023-07-20T06:30:05;28.30;39.30
76168;DHT22;64927;48.214;16.378;2023-07-20T06:32:30;28.70;39.20
76168;DHT22;64927;48.214;16.378;2023-07-20T06:34:56;28.80;38.20
76168;DHT22;64927;48.214;16.378;2023-07-20T06:37:22;29.30;38.10
76168;DHT22;64927;48.214;16.378;2023-07-20T06:39:50;29.80;36.70
76168;DHT22;64927;48.214;16.378;2023-07-20T06:42:16;30.10;35.50
76168;DHT22;64927;48.214;16.378;2023-07-20T06:44:41;30.10;34.70
76168;DHT22;64927;48.214;16.378;2023-07-20T06:47:07;29.50;34.30
76168;DHT22;64927;48.214;16.378;2023-07-20T06:49:33;29.30;35.90
76168;DHT22;64927;48.214;16.378;2023-07-20T06:51:58;29.80;35.20
76168;DHT22;64927;48.214;16.378;2023-07-20T06:54:24;30.00;34.70
76168;DHT22;64927;48.214;16.378;2023-07-20T06:56:50;30.20;34.30
76168;DHT22;64927;48.214;16.378;2023-07-20T06:59:15;30.50;34.40
76168;DHT22;64927;48.214;16.378;2023-07-20T07:01:41;30.50;33.60
76168;DHT22;64927;48.214;16.378;2023-07-20T07:04:06;30.50;33.90
76168;DHT22;64927;48.214;16.378;2023-07-20T07:06:32;30.60;33.50
76168;DHT22;64927;48.214;16.378;2023-07-20T07:08:58;30.90;33.70
76168;DHT22;64927;48.214;16.378;2023-07-20T07:11:26;30.60;34.70
76168;DHT22;64927;48.214;16.378;2023-07-20T07:13:52;30.50;34.70
76168;DHT22;64927;48.214;16.378;2023-07-20T07:16:20;30.80;34.10
76168;DHT22;64927;48.214;16.378;2023-07-20T07:18:46;30.80;34.10
76168;DHT22;64927;48.214;16.378;2023-07-20T07:21:11;30.10;35.00
76168;DHT22;64927;48.214;16.378;2023-07-20T07:23:39;30.30;35.80
76168;DHT22;64927;48.214;16.378;2023-07-20T07:26:05;30.40;34.60
76168;DHT22;64927;48.214;16.378;2023-07-20T07:28:30;30.30;34.50
76168;DHT22;64927;48.214;16.378;2023-07-20T07:30:57;29.80;35.00
76168;DHT22;64927;48.214;16.378;2023-07-20T07:33:23;29.00;36.30
76168;DHT22;64927;48.214;16.378;2023-07-20T07:35:51;29.20;35.30
76168;DHT22;64927;48.214;16.378;2023-07-20T07:38:18;29.20;36.70
76168;DHT22;64927;48.214;16.378;2023-07-20T07:40:46;28.70;36.40
76168;DHT22;64927;48.214;16.378;2023-07-20T07:43:12;28.70;37.30
76168;DHT22;64927;48.214;16.378;2023-07-20T07:45:39;29.40;35.40
76168;DHT22;64927;48.214;16.378;2023-07-20T07:48:06;29.00;35.90
76168;DHT22;64927;48.214;16.378;2023-07-20T07:50:33;29.00;36.20
76168;DHT22;64927;48.214;16.378;2023-07-20T07:52:58;29.50;36.00
76168;DHT22;64927;48.214;16.378;2023-07-20T07:55:25;29.70;34.90
76168;DHT22;64927;48.214;16.378;2023-07-20T07:57:52;29.80;34.30
76168;DHT22;64927;48.214;16.378;2023-07-20T08:00:18;29.70;34.80
76168;DHT22;64927;48.214;16.378;2023-07-20T08:02:45;30.40;33.90
76168;DHT22;64927;48.214;16.378;2023-07-20T08:05:12;30.40;33.00
76168;DHT22;64927;48.214;16.378;2023-07-20T08:07:40;30.50;33.40
76168;DHT22;64927;48.214;16.378;2023-07-20T08:10:06;30.80;32.70
76168;DHT22;64927;48.214;16.378;2023-07-20T08:12:34;30.70;33.10
76168;DHT22;64927;48.214;16.378;2023-07-20T08:15:00;30.60;33.30
76168;DHT22;64927;48.214;16.378;2023-07-20T08:17:26;30.90;33.30
76168;DHT22;64927;48.214;16.378;2023-07-20T08:19:51;31.30;32.40
76168;DHT22;64927;48.214;16.378;2023-07-20T08:22:17;31.40;32.50
76168;DHT22;64927;48.214;16.378;2023-07-20T08:24:43;31.50;32.10
76168;DHT22;64927;48.214;16.378;2023-07-20T08:27:09;31.50;31.80
76168;DHT22;64927;48.214;16.378;2023-07-20T08:29:36;31.20;32.10
76168;DHT22;64927;48.214;16.378;2023-07-20T08:32:03;30.50;33.30
76168;DHT22;64927;48.214;16.378;2023-07-20T08:34:29;30.00;33.80
76168;DHT22;64927;48.214;16.378;2023-07-20T08:36:58;29.60;34.50
76168;DHT22;64927;48.214;16.378;2023-07-20T08:39:24;29.40;35.40
76168;DHT22;64927;48.214;16.378;2023-07-20T08:41:50;29.40;35.50
76168;DHT22;64927;48.214;16.378;2023-07-20T08:44:17;29.40;35.40
76168;DHT22;64927;48.214;16.378;2023-07-20T08:46:43;29.20;35.30
76168;DHT22;64927;48.214;16.378;2023-07-20T08:49:09;29.00;35.80
76168;DHT22;64927;48.214;16.378;2023-07-20T08:51:39;28.60;36.70
76168;DHT22;64927;48.214;16.378;2023-07-20T08:54:07;28.50;37.50
76168;DHT22;64927;48.214;16.378;2023-07-20T08:56:34;28.20;37.40
76168;DHT22;64927;48.214;16.378;2023-07-20T08:59:02;27.90;38.00
76168;DHT22;64927;48.214;16.378;2023-07-20T09:01:28;27.80;38.60
76168;DHT22;64927;48.214;16.378;2023-07-20T09:03:55;27.80;39.00
76168;DHT22;64927;48.214;16.378;2023-07-20T09:06:23;27.50;39.60
76168;DHT22;64927;48.214;16.378;2023-07-20T09:08:49;27.90;39.20
76168;DHT22;64927;48.214;16.378;2023-07-20T09:11:17;28.80;38.00
76168;DHT22;64927;48.214;16.378;2023-07-20T09:13:42;29.20;36.40
76168;DHT22;64927;48.214;16.378;2023-07-20T09:16:13;29.20;36.30
76168;DHT22;64927;48.214;16.378;2023-07-20T09:18:40;29.50;37.20
76168;DHT22;64927;48.214;16.378;2023-07-20T09:21:07;30.00;35.20
76168;DHT22;64927;48.214;16.378;2023-07-20T09:23:37;29.40;35.40
76168;DHT22;64927;48.214;16.378;2023-07-20T09:26:14;28.50;37.70
76168;DHT22;64927;48.214;16.378;2023-07-20T09:28:49;28.20;37.90
76168;DHT22;64927;48.214;16.378;2023-07-20T09:31:17;27.70;38.70
76168;DHT22;64927;48.214;16.378;2023-07-20T09:33:44;27.40;39.70
76168;DHT22;64927;48.214;16.378;2023-07-20T09:36:10;27.50;39.90
76168;DHT22;64927;48.214;16.378;2023-07-20T09:38:42;27.40;39.80
76168;DHT22;64927;48.214;16.378;2023-07-20T09:41:18;27.40;40.60
76168;DHT22;64927;48.214;16.378;2023-07-20T09:43:45;27.70;39.60
76168;DHT22;64927;48.214;16.378;2023-07-20T09:46:11;27.80;39.10
76168;DHT22;64927;48.214;16.378;2023-07-20T09:48:36;27.90;39.60
76168;DHT22;64927;48.214;16.378;2023-07-20T09:51:03;28.40;38.70
76168;DHT22;64927;48.214;16.378;2023-07-20T09:53:32;28.30;38.40
76168;DHT22;64927;48.214;16.378;2023-07-20T09:55:59;28.50;38.20
76168;DHT22;64927;48.214;16.378;2023-07-20T09:58:26;29.00;37.90
76168;DHT22;64927;48.214;16.378;2023-07-20T10:00:56;28.90;37.10
76168;DHT22;64927;48.214;16.378;2023-07-20T10:03:29;28.80;37.40
76168;DHT22;64927;48.214;16.378;2023-07-20T10:06:00;28.60;37.50
76168;DHT22;64927;48.214;16.378;2023-07-20T10:08:29;29.10;37.80
76168;DHT22;64927;48.214;16.378;2023-07-20T10:10:58;29.60;35.70
76168;DHT22;64927;48.214;16.378;2023-07-20T10:13:29;29.90;35.70
76168;DHT22;64927;48.214;16.378;2023-07-20T10:16:10;29.70;35.60
76168;DHT22;64927;48.214;16.378;2023-07-20T10:19:02;29.60;36.20
76168;DHT22;64927;48.214;16.378;2023-07-20T10:21:29;29.40;36.00
76168;DHT22;64927;48.214;16.378;2023-07-20T10:23:59;29.20;35.70
76168;DHT22;64927;48.214;16.378;2023-07-20T10:26:26;29.40;35.40
76168;DHT22;64927;48.214;16.378;2023-07-20T10:28:52;29.90;34.10
76168;DHT22;64927;48.214;16.378;2023-07-20T10:31:18;30.20;33.40
76168;DHT22;64927;48.214;16.378;2023-07-20T10:33:44;30.10;32.90
76168;DHT22;64927;48.214;16.378;2023-07-20T10:36:12;30.20;32.40
76168;DHT22;64927;48.214;16.378;2023-07-20T10:38:39;30.10;32.00
76168;DHT22;64927;48.214;16.378;2023-07-20T10:41:16;30.10;32.70
76168;DHT22;64927;48.214;16.378;2023-07-20T10:43:43;30.20;31.80
76168;DHT22;64927;48.214;16.378;2023-07-20T10:46:11;30.10;32.00
76168;DHT22;64927;48.214;16.378;2023-07-20T10:48:59;30.00;32.00
76168;DHT22;64927;48.214;16.378;2023-07-20T10:51:24;29.90;31.70
76168;DHT22;64927;48.214;16.378;2023-07-20T10:53:50;29.90;32.00
76168;DHT22;64927;48.214;16.378;2023-07-20T10:56:21;30.00;32.10
76168;DHT22;64927;48.214;16.378;2023-07-20T10:58:47;30.30;31.50
76168;DHT22;64927;48.214;16.378;2023-07-20T11:01:17;30.50;31.40
76168;DHT22;64927;48.214;16.378;2023-07-20T11:03:43;30.40;31.00
76168;DHT22;64927;48.214;16.378;2023-07-20T11:06:33;30.20;31.90
76168;DHT22;64927;48.214;16.378;2023-07-20T11:09:11;30.60;31.60
76168;DHT22;64927;48.214;16.378;2023-07-20T11:11:40;30.50;31.20
76168;DHT22;64927;48.214;16.378;2023-07-20T11:14:26;30.70;29.70
76168;DHT22;64927;48.214;16.378;2023-07-20T11:16:53;30.70;30.00
76168;DHT22;64927;48.214;16.378;2023-07-20T11:19:24;30.70;30.00
76168;DHT22;64927;48.214;16.378;2023-07-20T11:21:53;30.80;29.80
76168;DHT22;64927;48.214;16.378;2023-07-20T11:24:19;30.80;29.80
76168;DHT22;64927;48.214;16.378;2023-07-20T11:26:48;30.90;29.60
76168;DHT22;64927;48.214;16.378;2023-07-20T11:29:16;30.90;29.10
76168;DHT22;64927;48.214;16.378;2023-07-20T11:31:42;30.80;29.20
76168;DHT22;64927;48.214;16.378;2023-07-20T11:34:16;30.90;29.50
76168;DHT22;64927;48.214;16.378;2023-07-20T11:36:43;30.90;28.80
76168;DHT22;64927;48.214;16.378;2023-07-20T11:39:10;31.00;29.00
76168;DHT22;64927;48.214;16.378;2023-07-20T11:41:36;31.00;29.20
76168;DHT22;64927;48.214;16.378;2023-07-20T11:44:04;31.10;28.70
76168;DHT22;64927;48.214;16.378;2023-07-20T11:46:29;31.10;28.90
76168;DHT22;64927;48.214;16.378;2023-07-20T11:48:57;31.20;29.20
76168;DHT22;64927;48.214;16.378;2023-07-20T11:51:24;31.20;29.40
76168;DHT22;64927;48.214;16.378;2023-07-20T11:53:50;31.40;29.10
76168;DHT22;64927;48.214;16.378;2023-07-20T11:56:16;31.50;28.80
76168;DHT22;64927;48.214;16.378;2023-07-20T11:58:43;31.30;28.30
76168;DHT22;64927;48.214;16.378;2023-07-20T12:01:14;31.10;28.00
76168;DHT22;64927;48.214;16.378;2023-07-20T12:03:42;30.80;28.30
76168;DHT22;64927;48.214;16.378;2023-07-20T12:06:10;30.80;29.00
76168;DHT22;64927;48.214;16.378;2023-07-20T12:08:43;30.80;29.10
76168;DHT22;64927;48.214;16.378;2023-07-20T12:11:09;30.70;28.90
76168;DHT22;64927;48.214;16.378;2023-07-20T12:13:39;30.70;29.10
76168;DHT22;64927;48.214;16.378;2023-07-20T12:16:27;30.70;29.40
76168;DHT22;64927;48.214;16.378;2023-07-20T12:19:06;30.70;29.50
76168;DHT22;64927;48.214;16.378;2023-07-20T12:21:36;31.10;29.10
76168;DHT22;64927;48.214;16.378;2023-07-20T12:24:02;31.10;28.50
76168;DHT22;64927;48.214;16.378;2023-07-20T12:26:31;31.00;28.40
76168;DHT22;64927;48.214;16.378;2023-07-20T12:29:00;31.00;28.70
76168;DHT22;64927;48.214;16.378;2023-07-20T12:31:27;31.10;28.70
76168;DHT22;64927;48.214;16.378;2023-07-20T12:33:53;30.80;28.60
76168;DHT22;64927;48.214;16.378;2023-07-20T12:36:21;30.70;28.60
76168;DHT22;64927;48.214;16.378;2023-07-20T12:38:46;30.60;29.20
76168;DHT22;64927;48.214;16.378;2023-07-20T12:41:13;30.50;29.00
76168;DHT22;64927;48.214;16.378;2023-07-20T12:43:42;30.40;29.00
76168;DHT22;64927;48.214;16.378;2023-07-20T12:46:08;30.50;28.90
76168;DHT22;64927;48.214;16.378;2023-07-20T12:48:35;30.60;28.20
76168;DHT22;64927;48.214;16.378;2023-07-20T12:51:05;30.70;28.30
76168;DHT22;64927;48.214;16.378;2023-07-20T12:53:32;30.60;28.00
76168;DHT22;64927;48.214;16.378;2023-07-20T12:56:00;30.70;28.20
76168;DHT22;64927;48.214;16.378;2023-07-20T12:58:26;30.60;27.60
76168;DHT22;64927;48.214;16.378;2023-07-20T13:00:54;30.40;27.90
76168;DHT22;64927;48.214;16.378;2023-07-20T13:03:20;30.40;28.10
76168;DHT22;64927;48.214;16.378;2023-07-20T13:05:47;30.50;28.00
76168;DHT22;64927;48.214;16.378;2023-07-20T13:08:13;30.50;28.00
76168;DHT22;64927;48.214;16.378;2023-07-20T13:10:39;30.50;28.00
76168;DHT22;64927;48.214;16.378;2023-07-20T13:13:05;30.60;27.90
76168;DHT22;64927;48.214;16.378;2023-07-20T13:15:33;30.60;28.20
76168;DHT22;64927;48.214;16.378;2023-07-20T13:18:08;30.50;27.70
76168;DHT22;64927;48.214;16.378;2023-07-20T13:20:34;30.30;27.70
76168;DHT22;64927;48.214;16.378;2023-07-20T13:22:59;30.30;28.00
76168;DHT22;64927;48.214;16.378;2023-07-20T13:25:25;30.50;28.00
76168;DHT22;64927;48.214;16.378;2023-07-20T13:27:51;30.40;28.20
76168;DHT22;64927;48.214;16.378;2023-07-20T13:30:19;30.60;27.80
76168;DHT22;64927;48.214;16.378;2023-07-20T13:32:46;30.70;27.60
76168;DHT22;64927;48.214;16.378;2023-07-20T13:35:12;30.70;27.70
76168;DHT22;64927;48.214;16.378;2023-07-20T13:37:41;30.70;27.30
76168;DHT22;64927;48.214;16.378;2023-07-20T13:40:09;30.70;27.30
76168;DHT22;64927;48.214;16.378;2023-07-20T13:42:39;30.80;27.20
76168;DHT22;64927;48.214;16.378;2023-07-20T13:45:06;30.80;27.10
76168;DHT22;64927;48.214;16.378;2023-07-20T13:47:31;30.90;27.60
76168;DHT22;64927;48.214;16.378;2023-07-20T13:49:57;31.00;27.30
76168;DHT22;64927;48.214;16.378;2023-07-20T13:52:22;31.20;26.90
76168;DHT22;64927;48.214;16.378;2023-07-20T13:54:48;31.10;27.40
76168;DHT22;64927;48.214;16.378;2023-07-20T13:57:14;31.00;28.40
76168;DHT22;64927;48.214;16.378;2023-07-20T13:59:44;30.70;29.30
76168;DHT22;64927;48.214;16.378;2023-07-20T14:02:14;30.60;29.70
76168;DHT22;64927;48.214;16.378;2023-07-20T14:04:42;30.40;30.00
76168;DHT22;64927;48.214;16.378;2023-07-20T14:07:11;30.20;30.50
76168;DHT22;64927;48.214;16.378;2023-07-20T14:09:36;30.00;30.20
76168;DHT22;64927;48.214;16.378;2023-07-20T14:12:05;30.20;30.60
76168;DHT22;64927;48.214;16.378;2023-07-20T14:14:30;30.60;30.30
76168;DHT22;64927;48.214;16.378;2023-07-20T14:16:56;30.80;29.90
76168;DHT22;64927;48.214;16.378;2023-07-20T14:19:25;30.60;29.90
76168;DHT22;64927;48.214;16.378;2023-07-20T14:21:50;30.30;29.50
76168;DHT22;64927;48.214;16.378;2023-07-20T14:24:18;30.00;30.50
76168;DHT22;64927;48.214;16.378;2023-07-20T14:26:44;29.90;30.80
76168;DHT22;64927;48.214;16.378;2023-07-20T14:29:10;30.10;31.30
76168;DHT22;64927;48.214;16.378;2023-07-20T14:31:37;30.20;30.80
76168;DHT22;64927;48.214;16.378;2023-07-20T14:34:06;30.10;30.30
76168;DHT22;64927;48.214;16.378;2023-07-20T14:36:34;30.10;30.50
76168;DHT22;64927;48.214;16.378;2023-07-20T14:38:59;29.70;30.70
76168;DHT22;64927;48.214;16.378;2023-07-20T14:41:25;29.80;30.80
76168;DHT22;64927;48.214;16.378;2023-07-20T14:43:51;29.60;30.70
76168;DHT22;64927;48.214;16.378;2023-07-20T14:46:17;29.70;30.80
76168;DHT22;64927;48.214;16.378;2023-07-20T14:48:45;29.70;30.90
76168;DHT22;64927;48.214;16.378;2023-07-20T14:51:11;29.80;30.90
76168;DHT22;64927;48.214;16.378;2023-07-20T14:53:37;30.00;30.30
76168;DHT22;64927;48.214;16.378;2023-07-20T14:56:02;30.00;30.80
76168;DHT22;64927;48.214;16.378;2023-07-20T14:58:29;30.00;31.10
76168;DHT22;64927;48.214;16.378;2023-07-20T15:00:55;30.00;30.80
76168;DHT22;64927;48.214;16.378;2023-07-20T15:03:21;29.80;30.20
76168;DHT22;64927;48.214;16.378;2023-07-20T15:05:46;30.00;30.50
76168;DHT22;64927;48.214;16.378;2023-07-20T15:08:12;29.90;29.90
76168;DHT22;64927;48.214;16.378;2023-07-20T15:10:37;30.00;30.40
76168;DHT22;64927;48.214;16.378;2023-07-20T15:13:03;30.10;30.00
76168;DHT22;64927;48.214;16.378;2023-07-20T15:15:31;30.40;30.40
76168;DHT22;64927;48.214;16.378;2023-07-20T15:17:56;30.50;28.90
76168;DHT22;64927;48.214;16.378;2023-07-20T15:20:22;30.60;28.10
76168;DHT22;64927;48.214;16.378;2023-07-20T15:22:48;30.60;27.70
76168;DHT22;64927;48.214;16.378;2023-07-20T15:25:13;30.80;27.60